Time;durP1;ratioP1;P1;durP2;ratioP2;P2;SDS_P1;SDS_P2;PMS_P1;PMS_P2;Temp;Humidity;BMP_temperature;BMP_pressure;BME280_temperature;BME280_humidity;BME280_pressure;Samples;Min_cycle;Max_cycle;Signal;HPM_P1;HPM_P2
2021/05/09 00:02:25;;;;;;;8.50;3.13;;;12.20;99.90;;;;;;5082418;28;20390;-53
2021/05/09 00:04:50;;;;;;;6.28;3.20;;;12.10;99.90;;;;;;5083692;28;20020;-55
2021/05/09 00:07:16;;;;;;;6.47;3.05;;;12.10;99.90;;;;;;5081519;28;20504;-58
2021/05/09 00:09:42;;;;;;;7.07;2.90;;;12.10;99.90;;;;;;5077101;28;20524;-56
2021/05/09 00:12:08;;;;;;;8.80;2.90;;;12.00;99.90;;;;;;5080157;28;20057;-58
2021/05/09 00:14:34;;;;;;;7.55;2.78;;;12.00;99.90;;;;;;5079675;28;20501;-55
2021/05/09 00:17:00;;;;;;;4.82;2.90;;;11.90;99.90;;;;;;5079130;28;20111;-56
2021/05/09 00:19:26;;;;;;;6.63;2.97;;;11.90;99.90;;;;;;5077595;28;20464;-55
2021/05/09 00:21:51;;;;;;;5.15;2.70;;;11.90;99.90;;;;;;5074912;28;20032;-55
2021/05/09 00:24:17;;;;;;;5.43;2.55;;;12.00;99.90;;;;;;5075924;28;20035;-55
2021/05/09 00:26:42;;;;;;;5.72;2.50;;;11.90;99.90;;;;;;5075714;28;20109;-54
2021/05/09 00:29:08;;;;;;;7.45;2.85;;;11.90;99.90;;;;;;5080666;28;20387;-56
2021/05/09 00:31:33;;;;;;;4.78;2.85;;;11.90;99.90;;;;;;5076770;28;20398;-57
2021/05/09 00:33:59;;;;;;;4.85;2.67;;;11.80;99.90;;;;;;5079736;28;20090;-56
2021/05/09 00:36:27;;;;;;;4.88;2.75;;;11.80;99.90;;;;;;5083234;28;20398;-55
2021/05/09 00:38:53;;;;;;;5.40;3.05;;;11.80;99.90;;;;;;5077961;28;20497;-54
2021/05/09 00:41:18;;;;;;;4.88;2.72;;;11.70;99.90;;;;;;5083075;28;20028;-57
2021/05/09 00:43:45;;;;;;;5.05;2.85;;;11.70;99.90;;;;;;5081699;28;20028;-57
2021/05/09 00:46:10;;;;;;;5.30;2.58;;;11.70;99.90;;;;;;5078253;28;20105;-57
2021/05/09 00:48:36;;;;;;;4.82;2.78;;;11.60;99.90;;;;;;5082464;28;20494;-57
2021/05/09 00:51:02;;;;;;;3.60;2.40;;;11.50;99.90;;;;;;5081356;28;20047;-55
2021/05/09 00:53:29;;;;;;;4.95;2.90;;;11.50;99.90;;;;;;5076104;28;20385;-56
2021/05/09 00:55:56;;;;;;;4.50;2.67;;;11.40;99.90;;;;;;5075529;28;20378;-54
2021/05/09 00:58:23;;;;;;;6.25;2.92;;;11.40;99.90;;;;;;5082595;28;20398;-54
2021/05/09 01:00:50;;;;;;;6.20;2.78;;;11.30;99.90;;;;;;5083682;28;20394;-56
2021/05/09 01:03:20;;;;;;;5.65;3.33;;;11.30;99.90;;;;;;5079790;28;20753;-54
2021/05/09 01:05:46;;;;;;;5.68;2.78;;;11.20;99.90;;;;;;5087750;28;20074;-54
2021/05/09 01:08:11;;;;;;;5.40;3.38;;;11.20;99.90;;;;;;5090263;28;20024;-55
2021/05/09 01:10:37;;;;;;;4.13;3.17;;;11.20;99.90;;;;;;5082724;28;20048;-55
2021/05/09 01:13:02;;;;;;;4.90;2.90;;;11.20;99.90;;;;;;5083656;28;20095;-54
2021/05/09 01:15:28;;;;;;;5.25;3.17;;;11.10;99.90;;;;;;5078601;28;20047;-55
2021/05/09 01:17:54;;;;;;;8.10;3.78;;;11.20;99.90;;;;;;5079923;28;20024;-55
2021/05/09 01:20:20;;;;;;;5.50;2.60;;;11.20;99.90;;;;;;5081210;28;20103;-54
2021/05/09 01:22:45;;;;;;;6.20;2.95;;;11.10;99.90;;;;;;5092578;28;20508;-57
2021/05/09 01:25:11;;;;;;;7.85;3.53;;;11.10;99.90;;;;;;5082346;28;20081;-55
2021/05/09 01:27:38;;;;;;;8.73;3.53;;;11.10;99.90;;;;;;5077585;28;20394;-54
2021/05/09 01:30:08;;;;;;;7.60;3.63;;;11.10;99.90;;;;;;5082538;28;20024;-56
2021/05/09 01:32:34;;;;;;;10.00;3.65;;;11.00;99.90;;;;;;5089530;28;20036;-54
2021/05/09 01:34:59;;;;;;;4.07;3.10;;;11.00;99.90;;;;;;5086580;28;20032;-57
2021/05/09 01:37:25;;;;;;;5.30;3.45;;;11.00;99.90;;;;;;5090318;28;20074;-56
2021/05/09 01:39:51;;;;;;;6.28;3.60;;;11.00;99.90;;;;;;5077510;28;20402;-56
2021/05/09 01:42:16;;;;;;;5.97;3.28;;;11.00;99.90;;;;;;5086343;28;20024;-54
2021/05/09 01:44:53;;;;;;;6.60;3.22;;;10.90;99.90;;;;;;5084300;28;20020;-55
2021/05/09 01:47:19;;;;;;;5.18;2.95;;;10.90;99.90;;;;;;5080173;28;20024;-56
2021/05/09 01:49:45;;;;;;;5.82;3.58;;;10.90;99.90;;;;;;5082618;28;20517;-56
2021/05/09 01:52:11;;;;;;;4.65;3.15;;;10.90;99.90;;;;;;5085751;28;20032;-56
2021/05/09 01:54:36;;;;;;;7.47;2.75;;;10.90;99.90;;;;;;5087149;28;20032;-56
2021/05/09 01:57:02;;;;;;;6.68;3.30;;;10.80;99.90;;;;;;5076939;28;20032;-57
2021/05/09 01:59:28;;;;;;;7.80;4.47;;;10.80;99.90;;;;;;5086863;28;20073;-54
2021/05/09 02:01:53;;;;;;;6.53;3.25;;;10.80;99.90;;;;;;5086423;28;20433;-56
2021/05/09 02:04:19;;;;;;;6.25;3.67;;;10.80;99.90;;;;;;5088165;28;20028;-57
2021/05/09 02:06:44;;;;;;;7.40;3.85;;;10.70;99.90;;;;;;5084452;28;20429;-56
2021/05/09 02:09:10;;;;;;;4.85;3.40;;;10.60;99.90;;;;;;5091694;28;20039;-53
2021/05/09 02:11:35;;;;;;;5.35;3.45;;;10.60;99.90;;;;;;5095264;28;20028;-55
2021/05/09 02:14:01;;;;;;;10.48;3.97;;;10.40;99.90;;;;;;5083629;28;20085;-54
2021/05/09 02:16:27;;;;;;;12.52;3.72;;;10.40;99.90;;;;;;5085552;28;21195;-55
2021/05/09 02:18:52;;;;;;;7.70;3.72;;;10.40;99.90;;;;;;5085958;28;20088;-54
2021/05/09 02:21:18;;;;;;;7.65;3.65;;;10.40;99.90;;;;;;5090415;28;20028;-56
2021/05/09 02:23:43;;;;;;;4.22;3.47;;;10.30;99.90;;;;;;5083476;27;20020;-55
2021/05/09 02:26:09;;;;;;;7.20;3.55;;;10.40;99.90;;;;;;5085648;28;20474;-56
2021/05/09 02:28:34;;;;;;;3.75;3.15;;;10.40;99.90;;;;;;5085330;28;20497;-55
2021/05/09 02:31:00;;;;;;;6.03;3.35;;;10.30;99.90;;;;;;5088037;28;20440;-55
2021/05/09 02:33:25;;;;;;;7.72;3.80;;;10.20;99.90;;;;;;5087771;28;20055;-54
2021/05/09 02:35:51;;;;;;;13.68;4.28;;;10.20;99.90;;;;;;5084638;28;20374;-56
2021/05/09 02:38:17;;;;;;;7.75;3.70;;;10.20;99.90;;;;;;5087314;28;20405;-54
2021/05/09 02:40:42;;;;;;;5.82;3.75;;;10.10;99.90;;;;;;5091609;28;20028;-55
2021/05/09 02:43:08;;;;;;;6.25;4.00;;;10.00;99.90;;;;;;5087090;28;20069;-56
2021/05/09 02:45:33;;;;;;;6.03;3.80;;;10.00;99.90;;;;;;5077673;28;20028;-54
2021/05/09 02:47:59;;;;;;;11.73;3.97;;;10.00;99.90;;;;;;5082636;28;20026;-55
2021/05/09 02:50:25;;;;;;;9.43;4.00;;;10.00;99.90;;;;;;5076926;28;20375;-56
2021/05/09 02:52:50;;;;;;;10.45;4.50;;;10.00;99.90;;;;;;5078133;28;20474;-55
2021/05/09 02:55:16;;;;;;;10.73;5.05;;;9.90;99.90;;;;;;5079769;28;20127;-54
2021/05/09 02:57:41;;;;;;;10.73;4.25;;;9.90;99.90;;;;;;5077690;28;20082;-54
2021/05/09 03:00:08;;;;;;;11.18;4.72;;;9.80;99.90;;;;;;5083149;28;20028;-54
2021/05/09 03:02:34;;;;;;;10.10;3.88;;;9.80;99.90;;;;;;5078832;28;20042;-56
2021/05/09 03:04:59;;;;;;;7.53;4.20;;;9.80;99.90;;;;;;5074659;28;20043;-54
2021/05/09 03:07:25;;;;;;;8.90;3.72;;;9.80;99.90;;;;;;5079472;28;20050;-54
2021/05/09 03:09:50;;;;;;;8.63;4.28;;;9.90;99.90;;;;;;5073595;28;20024;-54
2021/05/09 03:12:16;;;;;;;6.68;4.00;;;9.90;99.90;;;;;;5073501;28;20036;-54
2021/05/09 03:14:42;;;;;;;5.95;3.50;;;9.90;99.90;;;;;;5080550;28;20112;-53
2021/05/09 03:17:07;;;;;;;6.57;4.25;;;9.80;99.90;;;;;;5075190;28;20039;-56
2021/05/09 03:19:33;;;;;;;7.18;4.18;;;9.80;99.90;;;;;;5080504;28;20074;-56
2021/05/09 03:21:58;;;;;;;6.85;4.28;;;9.80;99.90;;;;;;5072387;28;20025;-56
2021/05/09 03:24:24;;;;;;;6.85;3.90;;;9.90;99.90;;;;;;5081518;28;20067;-56
2021/05/09 03:26:49;;;;;;;7.15;3.97;;;9.80;99.90;;;;;;5077546;28;20063;-54
2021/05/09 03:29:15;;;;;;;5.13;3.40;;;9.80;99.90;;;;;;5081055;28;20719;-54
2021/05/09 03:31:40;;;;;;;7.78;3.85;;;9.80;99.90;;;;;;5079159;28;20449;-55
2021/05/09 03:34:06;;;;;;;7.60;3.65;;;9.80;99.90;;;;;;5080982;28;20444;-54
2021/05/09 03:36:32;;;;;;;6.95;3.92;;;9.80;99.90;;;;;;5073409;28;20028;-53
2021/05/09 03:38:57;;;;;;;6.18;3.88;;;9.80;99.90;;;;;;5071196;28;20478;-54
2021/05/09 03:41:24;;;;;;;5.00;3.67;;;9.80;99.90;;;;;;5075958;28;20052;-55
2021/05/09 03:43:50;;;;;;;7.28;3.40;;;9.80;99.90;;;;;;5075218;28;20024;-56
2021/05/09 03:46:16;;;;;;;8.10;3.00;;;9.90;99.90;;;;;;5078749;28;20074;-54
2021/05/09 03:48:42;;;;;;;6.47;3.47;;;10.00;99.90;;;;;;5076971;28;20029;-55
2021/05/09 03:51:07;;;;;;;6.63;3.78;;;10.10;99.90;;;;;;5084970;28;20098;-56
2021/05/09 03:53:33;;;;;;;5.40;3.63;;;10.10;99.90;;;;;;5088576;28;20116;-54
2021/05/09 03:55:58;;;;;;;6.07;3.22;;;10.10;99.90;;;;;;5075023;28;20031;-55
2021/05/09 03:58:25;;;;;;;4.47;3.20;;;10.20;99.90;;;;;;5082705;28;20541;-56
2021/05/09 04:00:50;;;;;;;6.90;3.00;;;10.20;99.90;;;;;;5080939;28;20050;-55
2021/05/09 04:03:29;;;;;;;4.30;2.85;;;10.30;99.90;;;;;;5084266;28;20107;-56
2021/05/09 04:05:55;;;;;;;8.02;3.22;;;10.40;99.90;;;;;;5091093;28;20080;-55
2021/05/09 04:08:23;;;;;;;4.57;2.88;;;10.40;99.90;;;;;;5086152;28;20024;-56
2021/05/09 04:10:50;;;;;;;5.63;2.90;;;10.30;99.90;;;;;;5081212;28;20043;-55
2021/05/09 04:13:16;;;;;;;5.07;2.92;;;10.40;99.90;;;;;;5081247;28;20042;-55
2021/05/09 04:15:42;;;;;;;6.35;2.75;;;10.40;99.90;;;;;;5079559;28;20024;-54
2021/05/09 04:18:08;;;;;;;6.35;2.80;;;10.40;99.90;;;;;;5085691;28;20532;-54
2021/05/09 04:20:34;;;;;;;6.45;2.90;;;10.40;99.90;;;;;;5088769;28;20098;-53
2021/05/09 04:23:17;;;;;;;4.78;2.83;;;10.50;99.90;;;;;;5086256;28;20028;-56
2021/05/09 04:25:51;;;;;;;3.65;2.70;;;10.50;99.90;;;;;;5084211;28;20028;-55
2021/05/09 04:28:17;;;;;;;7.35;2.65;;;10.60;99.90;;;;;;5080209;28;20034;-54
2021/05/09 04:30:43;;;;;;;7.30;2.95;;;10.60;99.90;;;;;;5079539;28;20032;-55
2021/05/09 04:33:09;;;;;;;4.13;2.67;;;10.60;99.90;;;;;;5086140;28;20046;-54
2021/05/09 04:35:35;;;;;;;4.03;2.50;;;10.70;99.90;;;;;;5086378;28;20032;-53
2021/05/09 04:38:02;;;;;;;3.90;2.67;;;10.70;99.90;;;;;;5091114;28;20051;-54
2021/05/09 04:40:28;;;;;;;3.05;2.42;;;10.80;99.90;;;;;;5090959;28;20028;-54
2021/05/09 04:42:55;;;;;;;3.53;2.17;;;10.80;99.90;;;;;;5080776;28;20636;-54
2021/05/09 04:45:20;;;;;;;4.43;2.22;;;10.90;99.90;;;;;;5080262;28;20414;-55
2021/05/09 04:47:46;;;;;;;6.82;2.55;;;10.90;99.90;;;;;;5078226;28;20020;-56
2021/05/09 04:50:12;;;;;;;5.43;2.90;;;10.90;99.90;;;;;;5081057;28;20031;-54
2021/05/09 04:52:38;;;;;;;3.40;2.38;;;11.00;99.90;;;;;;5087812;28;20028;-56
2021/05/09 04:55:05;;;;;;;2.80;2.42;;;11.00;99.90;;;;;;5078956;28;20039;-54
2021/05/09 04:57:33;;;;;;;3.63;1.85;;;11.10;99.90;;;;;;5080216;28;20517;-56
2021/05/09 04:59:59;;;;;;;3.92;2.42;;;11.10;99.90;;;;;;5077727;28;20040;-54
2021/05/09 05:02:24;;;;;;;5.47;2.33;;;11.20;99.90;;;;;;5079519;28;20073;-54
2021/05/09 05:04:50;;;;;;;2.80;2.00;;;11.30;99.90;;;;;;5082725;28;20474;-53
2021/05/09 05:07:15;;;;;;;4.13;2.55;;;11.40;99.90;;;;;;5085006;28;20054;-55
2021/05/09 05:09:41;;;;;;;5.18;1.88;;;11.50;99.90;;;;;;5078091;28;20028;-54
2021/05/09 05:12:08;;;;;;;8.23;2.50;;;11.50;99.90;;;;;;5078123;28;20033;-53
2021/05/09 05:14:34;;;;;;;5.03;2.70;;;11.60;99.90;;;;;;5076672;28;20028;-53
2021/05/09 05:17:00;;;;;;;8.50;2.58;;;11.60;99.90;;;;;;5079862;28;20504;-55
2021/05/09 05:19:26;;;;;;;3.65;2.28;;;11.70;99.90;;;;;;5081400;28;20039;-53
2021/05/09 05:21:51;;;;;;;3.83;2.17;;;11.70;99.90;;;;;;5079694;28;20091;-53
2021/05/09 05:24:17;;;;;;;4.57;2.20;;;11.70;99.90;;;;;;5084084;28;20051;-54
2021/05/09 05:26:43;;;;;;;4.13;2.28;;;11.80;99.90;;;;;;5079931;28;20047;-54
2021/05/09 05:29:08;;;;;;;4.43;2.05;;;11.80;99.90;;;;;;5080482;28;20171;-56
2021/05/09 05:31:34;;;;;;;3.95;2.35;;;11.90;99.90;;;;;;5077657;28;20114;-54
2021/05/09 05:34:01;;;;;;;4.10;2.33;;;12.00;99.90;;;;;;5086010;22;20055;-54
2021/05/09 05:36:29;;;;;;;6.03;2.30;;;12.00;99.90;;;;;;5082761;28;20027;-53
2021/05/09 05:38:54;;;;;;;3.50;2.20;;;12.20;99.90;;;;;;5087835;28;20036;-54
2021/05/09 05:41:20;;;;;;;3.33;1.80;;;12.30;99.90;;;;;;5084594;28;20028;-59
2021/05/09 05:43:45;;;;;;;2.53;1.90;;;12.30;99.90;;;;;;5080564;28;20024;-55
2021/05/09 05:46:11;;;;;;;7.45;2.53;;;12.50;99.90;;;;;;5078696;28;20023;-53
2021/05/09 05:48:36;;;;;;;3.35;2.03;;;12.50;99.90;;;;;;5086307;28;20113;-56
2021/05/09 05:51:02;;;;;;;2.88;1.80;;;12.60;99.90;;;;;;5064143;28;20526;-52
2021/05/09 05:53:29;;;;;;;3.30;1.60;;;12.70;99.90;;;;;;5078989;28;20478;-56
2021/05/09 05:55:54;;;;;;;2.85;2.13;;;12.80;99.90;;;;;;5082595;28;20389;-52
2021/05/09 05:58:21;;;;;;;3.47;1.88;;;12.80;99.90;;;;;;5081773;28;20028;-52
2021/05/09 06:00:47;;;;;;;3.97;2.00;;;12.90;99.90;;;;;;5081099;28;20032;-56
2021/05/09 06:03:13;;;;;;;2.97;1.83;;;13.00;99.90;;;;;;5082718;28;20020;-53
2021/05/09 06:05:39;;;;;;;4.05;1.88;;;13.10;99.90;;;;;;5079334;28;20167;-52
2021/05/09 06:08:05;;;;;;;3.22;1.98;;;13.20;99.90;;;;;;5087730;28;20466;-53
2021/05/09 06:10:31;;;;;;;3.53;1.85;;;13.30;99.90;;;;;;5079271;28;20110;-55
2021/05/09 06:12:57;;;;;;;4.00;2.47;;;13.40;99.90;;;;;;5082871;28;20161;-53
2021/05/09 06:15:23;;;;;;;2.70;2.50;;;13.50;99.90;;;;;;5083313;28;20107;-52
2021/05/09 06:17:49;;;;;;;4.15;1.92;;;13.60;99.90;;;;;;5080955;28;20481;-56
2021/05/09 06:20:15;;;;;;;4.60;1.92;;;13.70;99.90;;;;;;5079725;28;20035;-53
2021/05/09 06:22:41;;;;;;;6.25;2.30;;;13.70;99.90;;;;;;5055812;28;20060;-55
2021/05/09 06:25:08;;;;;;;3.00;1.70;;;13.80;99.90;;;;;;5078320;28;20111;-52
2021/05/09 06:27:34;;;;;;;2.03;1.85;;;14.00;99.90;;;;;;5079156;28;20032;-56
2021/05/09 06:29:59;;;;;;;5.55;1.77;;;14.10;99.90;;;;;;5079599;28;20047;-56
2021/05/09 06:32:25;;;;;;;7.65;2.08;;;14.20;99.90;;;;;;5080315;28;20251;-57
2021/05/09 06:34:51;;;;;;;6.57;2.20;;;14.20;99.90;;;;;;5082228;28;20078;-52
2021/05/09 06:37:16;;;;;;;5.15;1.90;;;14.40;99.90;;;;;;5084179;28;20024;-53
2021/05/09 06:39:42;;;;;;;4.63;1.95;;;14.50;99.90;;;;;;5084002;28;20060;-55
2021/05/09 06:42:08;;;;;;;3.17;1.90;;;14.50;99.90;;;;;;5084385;28;20496;-57
2021/05/09 06:44:44;;;;;;;4.07;1.48;;;14.70;99.90;;;;;;5085824;28;20645;-53
2021/05/09 06:47:10;;;;;;;3.65;1.80;;;14.90;99.90;;;;;;5081790;28;20024;-54
2021/05/09 06:49:35;;;;;;;2.60;1.80;;;14.90;99.90;;;;;;5081650;28;20036;-53
2021/05/09 06:52:01;;;;;;;2.28;1.40;;;15.10;99.90;;;;;;5086353;28;20790;-53
2021/05/09 06:54:26;;;;;;;2.80;1.55;;;15.20;99.90;;;;;;5084972;28;20540;-59
2021/05/09 06:56:53;;;;;;;3.50;1.40;;;15.30;99.90;;;;;;5087714;28;20136;-57
2021/05/09 06:59:19;;;;;;;6.32;1.83;;;15.50;99.90;;;;;;5077216;28;20036;-56
2021/05/09 07:01:45;;;;;;;6.03;2.05;;;15.60;99.90;;;;;;5085000;28;20032;-53
2021/05/09 07:04:11;;;;;;;4.38;1.40;;;15.70;99.90;;;;;;5082456;28;20268;-57
2021/05/09 07:06:36;;;;;;;3.13;1.55;;;15.90;99.90;;;;;;5087413;28;20178;-53
2021/05/09 07:09:06;;;;;;;2.60;1.88;;;16.00;99.90;;;;;;5082008;28;20134;-53
2021/05/09 07:11:32;;;;;;;3.50;2.20;;;16.20;99.90;;;;;;5083144;28;20032;-54
2021/05/09 07:13:58;;;;;;;6.03;1.52;;;16.30;99.90;;;;;;5080900;28;20040;-57
2021/05/09 07:16:25;;;;;;;3.90;1.80;;;16.40;99.90;;;;;;5080095;28;20032;-57
2021/05/09 07:18:51;;;;;;;2.90;1.70;;;16.50;99.90;;;;;;5082555;28;20030;-59
2021/05/09 07:21:22;;;;;;;6.28;2.33;;;16.70;99.90;;;;;;5079502;28;20421;-56
2021/05/09 07:23:48;;;;;;;3.65;1.65;;;16.80;99.90;;;;;;5078510;28;20107;-58
2021/05/09 07:26:14;;;;;;;2.08;1.60;;;16.80;99.90;;;;;;5078123;28;20043;-58
2021/05/09 07:28:41;;;;;;;5.90;1.85;;;16.90;99.90;;;;;;5080470;28;20047;-57
2021/05/09 07:31:06;;;;;;;5.90;1.77;;;17.10;99.90;;;;;;5078035;28;20530;-53
2021/05/09 07:33:32;;;;;;;8.10;1.90;;;17.10;99.90;;;;;;5084102;28;20127;-54
2021/05/09 07:35:58;;;;;;;2.90;1.38;;;17.20;99.90;;;;;;5081118;28;20027;-57
2021/05/09 07:38:23;;;;;;;4.07;1.50;;;17.40;99.90;;;;;;5081418;28;20024;-57
2021/05/09 07:40:49;;;;;;;3.90;1.60;;;17.50;99.90;;;;;;5077238;28;20726;-56
2021/05/09 07:43:15;;;;;;;2.60;1.60;;;17.80;99.90;;;;;;5078988;28;20036;-53
2021/05/09 07:45:41;;;;;;;3.35;1.55;;;17.90;99.90;;;;;;5079785;28;20032;-56
2021/05/09 07:48:09;;;;;;;5.47;1.52;;;18.00;99.90;;;;;;5080537;28;20052;-54
2021/05/09 07:50:35;;;;;;;5.75;1.80;;;18.10;99.90;;;;;;5081843;28;20037;-53
2021/05/09 07:53:00;;;;;;;6.30;1.40;;;18.20;99.90;;;;;;5078581;28;20465;-57
2021/05/09 07:55:27;;;;;;;2.67;1.70;;;18.20;99.90;;;;;;5080216;28;20406;-56
2021/05/09 07:57:53;;;;;;;1.75;1.42;;;18.40;99.90;;;;;;5082812;28;20036;-59
2021/05/09 08:00:20;;;;;;;6.85;1.85;;;18.50;99.90;;;;;;5082400;28;20024;-58
2021/05/09 08:02:46;;;;;;;1.90;1.45;;;18.60;99.90;;;;;;5081840;28;20068;-59
2021/05/09 08:05:12;;;;;;;2.08;1.40;;;18.70;99.90;;;;;;5077086;28;20124;-57
2021/05/09 08:07:55;;;;;;;3.85;1.63;;;18.80;99.90;;;;;;5082689;28;20145;-58
2021/05/09 08:10:24;;;;;;;3.45;1.40;;;18.80;99.90;;;;;;5082461;28;20073;-57
2021/05/09 08:12:50;;;;;;;3.22;2.00;;;18.80;99.90;;;;;;5081035;28;20080;-57
2021/05/09 08:15:17;;;;;;;4.18;1.73;;;18.90;99.90;;;;;;5083472;28;20040;-54
2021/05/09 08:17:43;;;;;;;1.60;1.30;;;19.00;99.90;;;;;;5082201;28;20039;-53
2021/05/09 08:20:09;;;;;;;4.63;1.90;;;19.20;99.90;;;;;;5080659;28;20032;-55
2021/05/09 08:22:35;;;;;;;3.92;1.70;;;19.30;99.90;;;;;;5079385;28;20554;-54
2021/05/09 08:25:01;;;;;;;3.90;2.47;;;19.50;99.90;;;;;;5076127;28;20016;-56
2021/05/09 08:27:30;;;;;;;6.90;1.83;;;19.70;99.90;;;;;;5071111;28;20036;-56
2021/05/09 08:29:56;;;;;;;8.15;1.33;;;19.90;99.90;;;;;;5074083;28;20413;-53
2021/05/09 08:32:22;;;;;;;3.38;1.20;;;20.00;99.90;;;;;;5074078;28;20043;-55
2021/05/09 08:34:47;;;;;;;3.70;1.80;;;20.10;99.90;;;;;;5054848;28;20135;-55
2021/05/09 08:37:13;;;;;;;6.22;1.67;;;20.20;99.90;;;;;;5087117;28;20446;-53
2021/05/09 08:39:39;;;;;;;3.50;2.00;;;20.40;99.90;;;;;;5078296;28;20040;-58
2021/05/09 08:42:06;;;;;;;3.22;1.48;;;20.40;99.90;;;;;;5077357;28;20035;-58
2021/05/09 08:44:33;;;;;;;3.83;1.80;;;20.50;99.90;;;;;;5076001;28;20015;-56
2021/05/09 08:47:00;;;;;;;3.50;1.52;;;20.60;99.90;;;;;;5077299;28;20026;-56
2021/05/09 08:49:28;;;;;;;9.70;1.70;;;20.80;99.90;;;;;;5081207;28;20808;-55
2021/05/09 08:51:54;;;;;;;4.55;1.55;;;21.00;99.90;;;;;;5083819;28;20036;-60
2021/05/09 08:54:19;;;;;;;2.20;1.40;;;21.30;99.90;;;;;;5076898;28;20456;-53
2021/05/09 08:56:45;;;;;;;3.67;1.52;;;21.50;99.90;;;;;;5080418;28;20028;-55
2021/05/09 08:59:11;;;;;;;5.95;1.88;;;21.70;99.90;;;;;;5078134;28;20040;-54
2021/05/09 09:01:40;;;;;;;9.95;1.73;;;21.80;99.90;;;;;;5077051;28;20534;-55
2021/05/09 09:04:06;;;;;;;4.38;1.17;;;21.90;99.90;;;;;;5075230;28;20508;-55
2021/05/09 09:06:47;;;;;;;4.75;1.50;;;22.00;99.90;;;;;;5075463;28;20036;-53
2021/05/09 09:09:23;;;;;;;3.83;1.42;;;22.10;99.90;;;;;;5081102;28;20028;-54
2021/05/09 09:11:57;;;;;;;2.22;1.45;;;22.20;99.90;;;;;;5080703;28;20111;-53
2021/05/09 09:14:27;;;;;;;5.67;1.53;;;22.20;99.90;;;;;;5084774;28;20442;-55
2021/05/09 09:17:15;;;;;;;6.90;1.58;;;22.20;99.90;;;;;;5080471;28;20289;-53
2021/05/09 09:20:06;;;;;;;4.97;1.77;;;22.40;99.90;;;;;;5084789;28;20028;-53
2021/05/09 09:23:05;;;;;;;4.10;1.85;;;22.60;99.90;;;;;;5082999;28;20070;-55
2021/05/09 09:25:33;;;;;;;3.60;1.83;;;22.90;99.90;;;;;;5029867;28;20508;-55
2021/05/09 09:28:00;;;;;;;4.07;1.75;;;23.00;99.90;;;;;;5080536;28;20048;-56
2021/05/09 09:30:28;;;;;;;3.50;2.00;;;22.90;99.90;;;;;;5090889;28;20070;-55
2021/05/09 09:33:16;;;;;;;6.40;1.73;;;23.10;99.90;;;;;;5082482;28;20477;-55
2021/05/09 09:35:46;;;;;;;3.38;1.30;;;23.10;99.90;;;;;;5079452;28;20063;-55
2021/05/09 09:38:33;;;;;;;3.17;1.75;;;23.20;99.90;;;;;;5082741;28;20020;-53
2021/05/09 09:41:09;;;;;;;4.25;1.55;;;23.50;99.90;;;;;;5086316;28;20101;-54
2021/05/09 09:43:35;;;;;;;5.75;1.75;;;23.50;99.90;;;;;;5086616;28;20028;-56
2021/05/09 09:46:00;;;;;;;4.93;1.85;;;23.50;99.90;;;;;;5086377;28;20042;-56
2021/05/09 09:48:41;;;;;;;3.40;1.60;;;23.60;99.90;;;;;;5081976;28;20330;-54
2021/05/09 09:51:08;;;;;;;2.30;1.70;;;23.90;99.90;;;;;;5077866;28;20065;-54
2021/05/09 09:53:44;;;;;;;2.83;1.50;;;24.20;99.90;;;;;;5080251;28;20055;-56
2021/05/09 09:56:18;;;;;;;1.88;1.50;;;24.50;99.90;;;;;;5084180;28;20393;-55
2021/05/09 09:59:16;;;;;;;5.80;2.00;;;24.60;99.90;;;;;;5076625;28;20025;-50
2021/05/09 10:01:42;;;;;;;4.15;1.42;;;24.60;99.90;;;;;;5018737;28;20048;-57
2021/05/09 10:04:09;;;;;;;6.32;1.70;;;24.40;99.90;;;;;;5078980;28;20371;-55
2021/05/09 10:06:39;;;;;;;3.35;1.60;;;24.30;99.90;;;;;;5077821;28;20109;-54
2021/05/09 10:09:07;;;;;;;7.20;1.80;;;24.30;99.90;;;;;;5079765;28;20039;-56
2021/05/09 10:11:33;;;;;;;3.58;1.92;;;24.30;99.90;;;;;;5080261;28;20279;-54
2021/05/09 10:13:59;;;;;;;5.43;1.73;;;24.50;99.90;;;;;;5082365;28;20031;-52
2021/05/09 10:16:30;;;;;;;1.80;1.70;;;24.80;99.90;;;;;;5081871;28;20577;-55
2021/05/09 10:19:02;;;;;;;2.38;1.40;;;25.10;99.90;;;;;;5078601;28;20508;-54
2021/05/09 10:21:35;;;;;;;3.35;1.70;;;25.20;99.90;;;;;;5076555;28;20017;-56
2021/05/09 10:24:18;;;;;;;5.03;1.58;;;25.30;99.90;;;;;;5075534;28;20027;-54
2021/05/09 10:26:47;;;;;;;7.45;2.00;;;25.50;99.90;;;;;;5079923;28;20036;-55
2021/05/09 10:32:29;;;;;;;2.03;1.30;;;25.80;99.90;;;;;;5077359;28;20028;-54
2021/05/09 10:34:58;;;;;;;4.45;1.52;;;26.10;99.90;;;;;;5074723;28;20032;-52
2021/05/09 10:37:38;;;;;;;10.05;1.90;;;26.40;99.90;;;;;;5081011;28;20029;-52
2021/05/09 10:40:16;;;;;;;6.43;1.58;;;26.40;99.90;;;;;;5079547;28;20032;-50
2021/05/09 10:42:42;;;;;;;2.63;1.77;;;26.40;99.90;;;;;;5062850;28;20432;-50
2021/05/09 10:45:07;;;;;;;2.90;1.50;;;26.10;99.90;;;;;;5077647;28;20033;-55
2021/05/09 10:47:33;;;;;;;2.17;1.55;;;26.10;99.90;;;;;;5079716;28;20350;-55
2021/05/09 10:50:14;;;;;;;4.40;1.55;;;26.10;99.90;;;;;;5077423;28;20028;-57
2021/05/09 10:52:44;;;;;;;4.30;2.10;;;26.10;99.90;;;;;;5075340;28;20024;-55
2021/05/09 10:55:39;;;;;;;3.78;1.85;;;26.10;99.90;;;;;;5079795;28;20020;-55
2021/05/09 10:58:16;;;;;;;2.85;1.60;;;26.10;99.90;;;;;;5079651;28;20076;-59
2021/05/09 11:01:00;;;;;;;6.80;1.77;;;26.00;99.90;;;;;;5076528;28;20064;-55
2021/05/09 11:03:34;;;;;;;4.97;2.33;;;26.10;99.90;;;;;;5076209;28;20152;-53
2021/05/09 11:06:08;;;;;;;2.90;1.70;;;26.00;99.90;;;;;;5080610;28;20109;-56
2021/05/09 11:08:43;;;;;;;5.38;1.80;;;26.10;99.90;;;;;;5075051;28;20107;-55
2021/05/09 11:11:19;;;;;;;6.10;1.73;;;26.20;99.90;;;;;;5083808;28;20032;-54
2021/05/09 11:14:05;;;;;;;3.70;1.88;;;26.20;99.90;;;;;;5058137;28;20542;-55
2021/05/09 11:16:33;;;;;;;11.13;1.75;;;26.20;99.90;;;;;;5074314;28;20036;-55
2021/05/09 11:19:09;;;;;;;3.97;1.88;;;26.30;99.90;;;;;;5060456;28;20036;-55
2021/05/09 11:21:47;;;;;;;3.22;1.73;;;26.10;99.90;;;;;;5079414;28;20139;-56
2021/05/09 11:24:27;;;;;;;4.38;1.60;;;26.10;99.90;;;;;;5084094;28;20052;-55
2021/05/09 11:26:55;;;;;;;1.77;1.42;;;26.00;99.90;;;;;;5080706;28;20020;-51
2021/05/09 11:29:21;;;;;;;4.55;1.67;;;25.90;99.90;;;;;;5063537;28;20029;-53
2021/05/09 11:31:51;;;;;;;8.80;2.22;;;26.10;99.90;;;;;;5077758;28;20040;-54
2021/05/09 11:34:18;;;;;;;4.40;1.73;;;26.40;99.90;;;;;;5078162;28;20028;-51
2021/05/09 11:36:46;;;;;;;7.47;1.63;;;26.70;99.90;;;;;;5076956;28;20044;-55
2021/05/09 11:39:30;;;;;;;3.30;1.77;;;27.10;99.90;;;;;;5078094;28;20051;-55
2021/05/09 11:42:16;;;;;;;5.82;1.75;;;27.50;99.90;;;;;;5060428;28;20042;-55
2021/05/09 11:44:52;;;;;;;3.88;1.90;;;28.00;99.90;;;;;;5082098;28;20023;-54
2021/05/09 11:47:23;;;;;;;2.47;1.13;;;28.30;99.90;;;;;;5078413;28;20040;-55
2021/05/09 11:49:57;;;;;;;6.65;1.98;;;28.30;99.90;;;;;;5078466;28;20108;-59
2021/05/09 11:52:30;;;;;;;;;;;28.60;99.90;;;;;;5079705;28;20024;-52
2021/05/09 11:54:58;;;;;;;2.33;1.10;;;28.80;97.60;;;;;;5073988;28;20282;-54
2021/05/09 11:57:26;;;;;;;8.40;1.80;;;28.90;97.50;;;;;;5077731;28;20098;-56
2021/05/09 11:59:57;;;;;;;3.17;1.30;;;29.00;94.30;;;;;;5080146;28;20155;-55
2021/05/09 12:02:33;;;;;;;15.95;1.35;;;29.20;93.30;;;;;;5074813;28;20021;-52
2021/05/09 12:05:20;;;;;;;2.03;1.05;;;29.20;94.10;;;;;;5077222;28;20016;-54
2021/05/09 12:07:48;;;;;;;4.13;1.52;;;29.10;92.90;;;;;;5078179;28;20012;-56
2021/05/09 12:10:25;;;;;;;5.28;1.73;;;29.10;92.00;;;;;;5081611;28;20031;-57
2021/05/09 12:13:09;;;;;;;3.80;1.25;;;29.10;91.60;;;;;;5083166;28;20052;-53
2021/05/09 12:15:43;;;;;;;8.40;1.58;;;29.20;91.10;;;;;;5074407;28;20054;-53
2021/05/09 12:18:09;;;;;;;5.88;1.35;;;29.30;90.10;;;;;;5081768;28;20037;-54
2021/05/09 12:20:36;;;;;;;4.65;1.40;;;29.30;90.90;;;;;;5075403;28;20044;-55
2021/05/09 12:23:07;;;;;;;5.20;1.33;;;29.70;91.20;;;;;;5076549;28;20059;-55
2021/05/09 12:25:34;;;;;;;4.03;1.88;;;29.50;87.80;;;;;;5079679;28;20039;-55
2021/05/09 12:28:31;;;;;;;7.63;1.92;;;29.30;90.30;;;;;;5080956;28;20354;-52
2021/05/09 12:31:18;;;;;;;2.35;1.33;;;29.00;90.00;;;;;;5061728;28;20119;-54
2021/05/09 12:33:47;;;;;;;8.35;1.08;;;29.10;88.60;;;;;;5075491;28;20078;-53
2021/05/09 12:36:20;;;;;;;4.32;1.50;;;29.30;88.10;;;;;;5077646;28;20016;-52
2021/05/09 12:38:46;;;;;;;6.60;2.10;;;29.40;87.60;;;;;;5076341;28;20137;-52
2021/05/09 12:41:13;;;;;;;2.58;1.35;;;29.10;86.50;;;;;;5081603;28;20036;-51
2021/05/09 12:43:51;;;;;;;4.00;1.08;;;29.40;86.80;;;;;;5076533;28;20455;-55
2021/05/09 12:46:47;;;;;;;8.68;1.95;;;29.40;85.80;;;;;;5081954;28;20068;-57
2021/05/09 12:49:19;;;;;;;5.93;1.45;;;29.60;84.80;;;;;;5076089;28;20395;-56
2021/05/09 12:51:52;;;;;;;5.75;1.63;;;29.60;86.70;;;;;;5077580;28;20028;-56
2021/05/09 12:54:42;;;;;;;2.65;1.50;;;29.70;84.50;;;;;;5077113;28;20062;-54
2021/05/09 12:57:22;;;;;;;2.55;1.38;;;29.60;83.10;;;;;;5074961;28;20020;-55
2021/05/09 12:59:48;;;;;;;2.60;1.40;;;29.70;90.30;;;;;;5073158;28;20028;-54